Time;durP1;ratioP1;P1;durP2;ratioP2;P2;SDS_P1;SDS_P2;PMS_P1;PMS_P2;Temp;Humidity;BMP_temperature;BMP_pressure;BME280_temperature;BME280_humidity;BME280_pressure;Samples;Min_cycle;Max_cycle;Signal;HPM_P1;HPM_P2
2022/03/13 00:02:18;;;;;;;;;17.00;6.00;;;;;;;;2;261082277;261082277;-77
2022/03/13 00:10:33;;;;;;;;;9.00;9.00;;;;;;;;2;261076364;261076364;-77
2022/03/13 00:19:34;;;;;;;;;6.50;6.50;;;;;;;;2;261079655;261079655;-77
2022/03/13 00:27:49;;;;;;;;;5.00;5.00;;;;;;;;2;261076563;261076563;-78
2022/03/13 00:36:50;;;;;;;;;4.00;4.00;;;;;;;;2;261080226;261080226;-78
2022/03/13 00:45:05;;;;;;;;;6.00;6.00;;;;;;;;2;261079482;261079482;-77
2022/03/13 00:54:06;;;;;;;;;8.00;8.00;;;;;;;;2;261077579;261077579;-78
2022/03/13 01:02:22;;;;;;;;;4.50;4.50;;;;;;;;2;261072999;261072999;-79
2022/03/13 01:11:23;;;;;;;;;6.00;6.00;;;;;;;;2;261074323;261074323;-78
2022/03/13 01:19:38;;;;;;;;;5.50;5.50;;;;;;;;2;261078950;261078950;-78
2022/03/13 01:28:38;;;;;;;;;4.50;4.50;;;;;;;;2;261077568;261077568;-78
2022/03/13 01:36:54;;;;;;;;;3.00;3.00;;;;;;;;2;261074942;261074942;-78
2022/03/13 01:45:54;;;;;;;;;3.50;3.50;;;;;;;;2;261074164;261074164;-78
2022/03/13 01:54:11;;;;;;;;;1.50;1.50;;;;;;;;2;261073253;261073253;-78
2022/03/13 02:03:12;;;;;;;;;7.00;7.00;;;;;;;;2;261078387;261078387;-78
2022/03/13 02:11:38;;;;;;;;;2.00;2.00;;;;;;;;2;261074344;261074344;-79
2022/03/13 02:20:40;;;;;;;;;4.50;4.50;;;;;;;;2;261080146;261080146;-79
2022/03/13 02:28:56;;;;;;;;;4.50;4.50;;;;;;;;2;261072730;261072730;-79
2022/03/13 02:37:56;;;;;;;;;8.50;8.50;;;;;;;;2;261071572;261071572;-79
2022/03/13 02:46:19;;;;;;;;;6.00;2.00;;;;;;;;2;261076781;261076781;-79
2022/03/13 02:55:20;;;;;;;;;5.00;5.00;;;;;;;;2;261077713;261077713;-79
2022/03/13 03:03:35;;;;;;;;;11.50;8.50;;;;;;;;2;261077731;261077731;-79
2022/03/13 03:12:36;;;;;;;;;1.00;1.00;;;;;;;;2;261075557;261075557;-79
2022/03/13 03:20:51;;;;;;;;;4.50;4.50;;;;;;;;2;261076492;261076492;-79
2022/03/13 03:29:51;;;;;;;;;7.50;7.50;;;;;;;;2;261079876;261079876;-79
2022/03/13 03:38:07;;;;;;;;;5.50;5.50;;;;;;;;2;261075309;261075309;-79
2022/03/13 03:47:07;;;;;;;;;10.50;10.50;;;;;;;;2;261080250;261080250;-79
2022/03/13 03:55:23;;;;;;;;;5.50;5.50;;;;;;;;2;261077572;261077572;-78
2022/03/13 04:04:23;;;;;;;;;10.00;6.00;;;;;;;;2;261073206;261073206;-78
2022/03/13 04:12:39;;;;;;;;;16.50;8.00;;;;;;;;2;261079079;261079079;-78
2022/03/13 04:21:40;;;;;;;;;12.00;12.00;;;;;;;;2;261075872;261075872;-79
2022/03/13 04:29:56;;;;;;;;;9.00;9.00;;;;;;;;2;261076548;261076548;-77
2022/03/13 04:38:56;;;;;;;;;6.00;6.00;;;;;;;;2;261078613;261078613;-77
2022/03/13 04:47:12;;;;;;;;;6.50;6.50;;;;;;;;2;261077807;261077807;-77
2022/03/13 04:56:12;;;;;;;;;15.50;3.50;;;;;;;;2;261076974;261076974;-77
2022/03/13 05:04:27;;;;;;;;;3.50;3.50;;;;;;;;2;261078228;261078228;-77
2022/03/13 05:13:28;;;;;;;;;4.50;4.50;;;;;;;;2;261077186;261077186;-77
2022/03/13 05:21:43;;;;;;;;;8.50;8.50;;;;;;;;2;261078119;261078119;-77
2022/03/13 05:30:44;;;;;;;;;2.00;2.00;;;;;;;;2;261076471;261076471;-77
2022/03/13 05:39:00;;;;;;;;;9.00;1.00;;;;;;;;2;261077242;261077242;-77
2022/03/13 05:48:06;;;;;;;;;1.50;1.50;;;;;;;;2;261076882;261076882;-77
2022/03/13 05:56:22;;;;;;;;;1.50;1.50;;;;;;;;2;261073327;261073327;-77
2022/03/13 06:05:22;;;;;;;;;1.50;1.50;;;;;;;;2;261074962;261074962;-78
2022/03/13 06:13:37;;;;;;;;;10.00;2.00;;;;;;;;2;261076597;261076597;-78
2022/03/13 06:22:39;;;;;;;;;5.50;1.50;;;;;;;;2;261074140;261074140;-77
2022/03/13 06:30:55;;;;;;;;;0.50;0.50;;;;;;;;2;261077668;261077668;-77
2022/03/13 06:39:56;;;;;;;;;2.50;2.50;;;;;;;;2;261077077;261077077;-78
2022/03/13 06:48:13;;;;;;;;;6.50;6.50;;;;;;;;2;261078576;261078576;-78
2022/03/13 06:57:18;;;;;;;;;2.00;2.00;;;;;;;;2;261076951;261076951;-77
2022/03/13 07:05:33;;;;;;;;;3.50;1.00;;;;;;;;2;261072751;261072751;-77
2022/03/13 07:14:34;;;;;;;;;3.50;3.50;;;;;;;;2;261074231;261074231;-77
2022/03/13 07:22:49;;;;;;;;;2.50;2.50;;;;;;;;2;261073792;261073792;-79
2022/03/13 07:31:50;;;;;;;;;5.50;5.50;;;;;;;;2;261078128;261078128;-79
2022/03/13 07:40:05;;;;;;;;;2.50;2.50;;;;;;;;2;261077107;261077107;-80
2022/03/13 07:49:06;;;;;;;;;1.00;1.00;;;;;;;;2;261077544;261077544;-80
2022/03/13 07:57:22;;;;;;;;;4.50;1.00;;;;;;;;2;261073502;261073502;-80
2022/03/13 08:06:23;;;;;;;;;2.00;2.00;;;;;;;;2;261073083;261073083;-80
2022/03/13 08:14:39;;;;;;;;;3.50;3.50;;;;;;;;2;261077802;261077802;-80
2022/03/13 08:23:39;;;;;;;;;0.00;0.00;;;;;;;;2;261075169;261075169;-80
2022/03/13 08:31:55;;;;;;;;;3.50;3.50;;;;;;;;2;261079731;261079731;-81
2022/03/13 08:40:54;;;;;;;;;13.00;1.00;;;;;;;;2;259520083;259520083;-81
2022/03/13 08:49:09;;;;;;;;;8.50;6.00;;;;;;;;2;260506780;260506780;-81
2022/03/13 08:58:10;;;;;;;;;1.00;1.00;;;;;;;;2;261076213;261076213;-81
2022/03/13 09:06:25;;;;;;;;;1.00;1.00;;;;;;;;2;261082941;261082941;-81
2022/03/13 09:15:26;;;;;;;;;2.50;2.50;;;;;;;;2;261084150;261084150;-81
2022/03/13 09:23:41;;;;;;;;;2.00;2.00;;;;;;;;2;261003039;261003039;-79
2022/03/13 09:32:42;;;;;;;;;3.00;3.00;;;;;;;;2;261078711;261078711;-82
2022/03/13 09:41:00;;;;;;;;;2.50;2.50;;;;;;;;2;261075229;261075229;-82
2022/03/13 09:50:29;;;;;;;;;;;;;;;;;;;;;
2022/03/13 09:58:45;;;;;;;;;1.00;1.00;;;;;;;;2;261107201;261107201;-79
2022/03/13 10:08:02;;;;;;;;;2.00;2.00;;;;;;;;2;261078033;261078033;-80
2022/03/13 10:16:22;;;;;;;;;1.00;1.00;;;;;;;;2;261076640;261076640;-80
2022/03/13 10:25:33;;;;;;;;;2.50;2.50;;;;;;;;2;261076352;261076352;-80
2022/03/13 10:33:52;;;;;;;;;6.50;1.50;;;;;;;;2;261077164;261077164;-80
2022/03/13 10:42:54;;;;;;;;;3.00;3.00;;;;;;;;2;261077010;261077010;-80
2022/03/13 10:51:12;;;;;;;;;1.00;1.00;;;;;;;;2;261075476;261075476;-80
2022/03/13 11:00:13;;;;;;;;;0.50;0.50;;;;;;;;2;261077978;261077978;-79
2022/03/13 11:08:29;;;;;;;;;0.00;0.00;;;;;;;;2;261078654;261078654;-82
2022/03/13 11:17:30;;;;;;;;;4.50;4.50;;;;;;;;2;261078255;261078255;-81
2022/03/13 11:25:48;;;;;;;;;1.50;1.50;;;;;;;;2;261078011;261078011;-81
2022/03/13 11:35:14;;;;;;;;;2.50;2.50;;;;;;;;2;261076147;261076147;-81
2022/03/13 11:43:34;;;;;;;;;2.50;2.50;;;;;;;;2;261080726;261080726;-82
2022/03/13 11:52:34;;;;;;;;;4.50;4.50;;;;;;;;2;261077168;261077168;-82
2022/03/13 12:01:04;;;;;;;;;0.00;0.00;;;;;;;;2;261074455;261074455;-81
2022/03/13 12:10:25;;;;;;;;;2.00;2.00;;;;;;;;2;261074740;261074740;-81
2022/03/13 12:18:40;;;;;;;;;0.50;0.50;;;;;;;;2;261077470;261077470;-80
2022/03/13 12:27:45;;;;;;;;;4.50;4.50;;;;;;;;2;261077510;261077510;-81
2022/03/13 12:36:01;;;;;;;;;2.00;2.00;;;;;;;;2;261077534;261077534;-82
2022/03/13 12:45:12;;;;;;;;;1.00;1.00;;;;;;;;2;261075460;261075460;-82
2022/03/13 12:53:27;;;;;;;;;2.50;2.50;;;;;;;;2;261073957;261073957;-82
2022/03/13 13:02:32;;;;;;;;;3.50;3.50;;;;;;;;2;261076198;261076198;-82
2022/03/13 13:10:56;;;;;;;;;1.00;1.00;;;;;;;;2;261076035;261076035;-83
2022/03/13 13:19:57;;;;;;;;;3.50;3.50;;;;;;;;2;261077950;261077950;-83
2022/03/13 13:28:12;;;;;;;;;4.00;4.00;;;;;;;;2;261075245;261075245;-84
2022/03/13 13:37:13;;;;;;;;;6.00;6.00;;;;;;;;2;261076828;261076828;-83
2022/03/13 13:45:28;;;;;;;;;10.50;5.00;;;;;;;;2;261077490;261077490;-83
2022/03/13 13:54:35;;;;;;;;;5.00;5.00;;;;;;;;2;261080037;261080037;-83
2022/03/13 14:02:50;;;;;;;;;4.00;4.00;;;;;;;;2;261076456;261076456;-82
2022/03/13 14:11:51;;;;;;;;;2.00;2.00;;;;;;;;2;261077602;261077602;-80
2022/03/13 14:20:07;;;;;;;;;4.00;4.00;;;;;;;;2;261079348;261079348;-81
2022/03/13 14:29:17;;;;;;;;;2.00;2.00;;;;;;;;2;261071181;261071181;-80
2022/03/13 14:37:42;;;;;;;;;14.00;3.50;;;;;;;;2;261077222;261077222;-80
2022/03/13 14:46:43;;;;;;;;;3.50;3.50;;;;;;;;2;261075700;261075700;-80
2022/03/13 14:54:58;;;;;;;;;3.00;3.00;;;;;;;;2;261075999;261075999;-80
2022/03/13 15:03:58;;;;;;;;;1.00;1.00;;;;;;;;2;261075566;261075566;-82
2022/03/13 15:12:14;;;;;;;;;2.00;2.00;;;;;;;;2;261077860;261077860;-81
2022/03/13 15:24:34;;;;;;;;;4.00;4.00;;;;;;;;2;261077891;261077891;-79
2022/03/13 15:32:50;;;;;;;;;13.00;5.00;;;;;;;;2;261079837;261079837;-80
2022/03/13 15:41:53;;;;;;;;;5.50;5.50;;;;;;;;2;261074826;261074826;-81
2022/03/13 15:50:08;;;;;;;;;13.00;4.00;;;;;;;;2;261079534;261079534;-82
2022/03/13 15:59:09;;;;;;;;;5.50;3.50;;;;;;;;2;261072756;261072756;-82
2022/03/13 16:07:24;;;;;;;;;0.50;0.50;;;;;;;;2;261075100;261075100;-82
2022/03/13 16:16:44;;;;;;;;;4.00;4.00;;;;;;;;2;261080122;261080122;-81
2022/03/13 16:25:03;;;;;;;;;3.00;3.00;;;;;;;;2;261076992;261076992;-82
2022/03/13 16:34:04;;;;;;;;;2.00;2.00;;;;;;;;2;261078032;261078032;-85
2022/03/13 16:42:26;;;;;;;;;0.00;0.00;;;;;;;;2;261073040;261073040;-81
2022/03/13 16:51:27;;;;;;;;;1.00;1.00;;;;;;;;2;261072420;261072420;-81
2022/03/13 16:59:43;;;;;;;;;11.50;0.50;;;;;;;;2;261078086;261078086;-82
2022/03/13 17:08:43;;;;;;;;;0.50;0.50;;;;;;;;2;261073866;261073866;-81
2022/03/13 17:16:59;;;;;;;;;1.50;1.50;;;;;;;;2;261075234;261075234;-81
2022/03/13 17:25:59;;;;;;;;;1.50;1.50;;;;;;;;2;261078514;261078514;-82
2022/03/13 17:34:18;;;;;;;;;3.50;0.50;;;;;;;;2;261077947;261077947;-82
2022/03/13 17:43:20;;;;;;;;;0.50;0.50;;;;;;;;2;261077631;261077631;-81
2022/03/13 17:51:36;;;;;;;;;3.00;3.00;;;;;;;;2;261078049;261078049;-82
2022/03/13 18:01:04;;;;;;;;;5.00;5.00;;;;;;;;2;261078431;261078431;-83
2022/03/13 18:09:27;;;;;;;;;2.00;2.00;;;;;;;;2;261074828;261074828;-83
2022/03/13 18:18:45;;;;;;;;;8.00;8.00;;;;;;;;2;261080448;261080448;-84
2022/03/13 18:27:00;;;;;;;;;6.00;6.00;;;;;;;;2;261080801;261080801;-82
2022/03/13 18:36:01;;;;;;;;;2.50;2.50;;;;;;;;2;261076147;261076147;-82
2022/03/13 18:44:17;;;;;;;;;6.00;6.00;;;;;;;;2;261081667;261081667;-83
2022/03/13 18:53:17;;;;;;;;;8.50;8.50;;;;;;;;2;261076388;261076388;-81
2022/03/13 19:01:34;;;;;;;;;5.00;5.00;;;;;;;;2;261074658;261074658;-83
2022/03/13 19:10:34;;;;;;;;;8.00;6.50;;;;;;;;2;261080599;261080599;-81
2022/03/13 19:18:52;;;;;;;;;3.50;3.50;;;;;;;;2;261079342;261079342;-82
2022/03/13 19:27:56;;;;;;;;;10.00;10.00;;;;;;;;2;261074431;261074431;-81
2022/03/13 19:36:11;;;;;;;;;19.00;7.50;;;;;;;;2;261080000;261080000;-81
2022/03/13 19:45:41;;;;;;;;;8.00;8.00;;;;;;;;2;261073587;261073587;-85
2022/03/13 19:53:56;;;;;;;;;5.50;5.50;;;;;;;;2;261074741;261074741;-83
2022/03/13 20:02:57;;;;;;;;;7.00;7.00;;;;;;;;2;261078010;261078010;-82
2022/03/13 20:11:14;;;;;;;;;3.50;3.50;;;;;;;;2;261079132;261079132;-82
2022/03/13 20:20:15;;;;;;;;;7.50;3.50;;;;;;;;2;261076201;261076201;-83
2022/03/13 20:28:31;;;;;;;;;5.00;5.00;;;;;;;;2;261076171;261076171;-83
2022/03/13 20:37:33;;;;;;;;;4.50;4.50;;;;;;;;2;261072509;261072509;-82
2022/03/13 20:45:50;;;;;;;;;3.00;3.00;;;;;;;;2;261078170;261078170;-81
2022/03/13 20:54:51;;;;;;;;;6.00;6.00;;;;;;;;2;261076044;261076044;-81
2022/03/13 21:03:06;;;;;;;;;5.00;5.00;;;;;;;;2;261076381;261076381;-81
2022/03/13 21:12:09;;;;;;;;;3.00;3.00;;;;;;;;2;261078191;261078191;-81
2022/03/13 21:20:25;;;;;;;;;5.00;5.00;;;;;;;;2;261071905;261071905;-81
2022/03/13 21:29:26;;;;;;;;;20.00;8.00;;;;;;;;2;261075924;261075924;-81
2022/03/13 21:37:42;;;;;;;;;17.00;5.00;;;;;;;;2;261075552;261075552;-81
2022/03/13 21:46:42;;;;;;;;;4.50;4.50;;;;;;;;2;261077863;261077863;-81
2022/03/13 21:54:58;;;;;;;;;12.00;4.50;;;;;;;;2;261076961;261076961;-80
2022/03/13 22:03:59;;;;;;;;;2.00;2.00;;;;;;;;2;261077903;261077903;-84
2022/03/13 22:12:23;;;;;;;;;5.00;5.00;;;;;;;;2;261075390;261075390;-83
2022/03/13 22:21:24;;;;;;;;;3.50;3.50;;;;;;;;2;261076589;261076589;-83
2022/03/13 22:29:39;;;;;;;;;5.50;5.50;;;;;;;;2;261079568;261079568;-83
2022/03/13 22:38:40;;;;;;;;;19.00;10.50;;;;;;;;2;261077502;261077502;-84
2022/03/13 22:46:55;;;;;;;;;5.50;5.50;;;;;;;;2;261077350;261077350;-84
2022/03/13 22:55:56;;;;;;;;;5.50;5.50;;;;;;;;2;261078646;261078646;-84
2022/03/13 23:04:11;;;;;;;;;6.00;6.00;;;;;;;;2;261079029;261079029;-84
2022/03/13 23:13:15;;;;;;;;;4.50;4.50;;;;;;;;2;261077938;261077938;-84
2022/03/13 23:21:31;;;;;;;;;3.50;3.50;;;;;;;;2;261070753;261070753;-83
2022/03/13 23:30:32;;;;;;;;;3.00;3.00;;;;;;;;2;261066326;261066326;-84
2022/03/13 23:38:48;;;;;;;;;1.50;1.50;;;;;;;;2;261068067;261068067;-83
2022/03/13 23:47:50;;;;;;;;;6.00;6.00;;;;;;;;2;261071868;261071868;-82
2022/03/13 23:56:06;;;;;;;;;2.50;2.50;;;;;;;;2;261069579;261069579;-84
